createdAt,value
2018-08-24T00:00:59.175Z,988.64
2018-08-24T00:01:59.215Z,988.66
2018-08-24T00:02:59.313Z,988.68
2018-08-24T00:03:59.298Z,988.68
2018-08-24T00:04:59.342Z,988.67
2018-08-24T00:05:59.376Z,988.66
2018-08-24T00:06:59.418Z,988.67
2018-08-24T00:07:59.508Z,988.64
2018-08-24T00:08:59.496Z,988.60
2018-08-24T00:09:59.538Z,988.55
2018-08-24T00:10:59.580Z,988.54
2018-08-24T00:11:59.618Z,988.54
2018-08-24T00:12:59.665Z,988.54
2018-08-24T00:13:59.698Z,988.54
2018-08-24T00:23:38.518Z,988.49
2018-08-24T00:24:38.539Z,988.50
2018-08-24T00:25:38.578Z,988.54
2018-08-24T00:26:38.626Z,988.51
2018-08-24T00:27:38.659Z,988.53
2018-08-24T00:28:38.699Z,988.50
2018-08-24T00:29:38.740Z,988.44
2018-08-24T00:30:38.783Z,988.44
2018-08-24T00:31:38.883Z,988.42
2018-08-24T00:32:38.863Z,988.42
2018-08-24T00:33:38.905Z,988.43
2018-08-24T00:34:38.947Z,988.46
2018-08-24T00:35:38.985Z,988.45
2018-08-24T00:36:39.022Z,988.44
2018-08-24T00:37:39.063Z,988.42
2018-08-24T00:38:39.102Z,988.42
2018-08-24T00:39:39.142Z,988.37
2018-08-24T00:40:39.183Z,988.36
2018-08-24T00:41:39.223Z,988.29
2018-08-24T00:42:39.300Z,988.32
2018-08-24T00:43:39.304Z,988.29
2018-08-24T00:44:39.344Z,988.32
2018-08-24T00:45:39.385Z,988.33
2018-08-24T00:46:39.425Z,988.32
2018-08-24T00:47:39.463Z,988.32
2018-08-24T00:48:39.508Z,988.30
2018-08-24T00:49:39.549Z,988.35
2018-08-24T00:50:39.588Z,988.35
2018-08-24T00:51:39.625Z,988.35
2018-08-24T00:52:39.667Z,988.34
2018-08-24T00:53:39.706Z,988.31
2018-08-24T00:54:39.745Z,988.37
2018-08-24T00:55:39.785Z,988.35
2018-08-24T00:56:39.826Z,988.34
2018-08-24T00:57:39.866Z,988.32
2018-08-24T00:58:39.911Z,988.31
2018-08-24T00:59:39.946Z,988.31
2018-08-24T01:00:39.986Z,988.34
2018-08-24T01:01:40.028Z,988.37
2018-08-24T01:02:40.069Z,988.42
2018-08-24T01:03:40.107Z,988.40
2018-08-24T01:04:40.150Z,988.43
2018-08-24T01:05:40.190Z,988.43
2018-08-24T01:06:40.230Z,988.49
2018-08-24T01:07:40.380Z,988.55
2018-08-24T01:08:40.308Z,988.52
2018-08-24T01:09:40.350Z,988.54
2018-08-24T01:10:40.403Z,988.55
2018-08-24T01:11:40.431Z,988.54
2018-08-24T01:12:40.477Z,988.61
2018-08-24T01:13:40.512Z,988.62
2018-08-24T01:14:40.551Z,988.63
2018-08-24T01:15:40.591Z,988.64
2018-08-24T01:16:40.631Z,988.63
2018-08-24T01:17:40.670Z,988.66
2018-08-24T01:18:40.709Z,988.66
2018-08-24T01:19:40.751Z,988.63
2018-08-24T01:20:40.791Z,988.63
2018-08-24T01:21:40.831Z,988.58
2018-08-24T01:22:40.870Z,988.52
2018-08-24T01:23:40.912Z,988.51
2018-08-24T01:24:40.960Z,988.48
2018-08-24T01:25:40.992Z,988.48
2018-08-24T01:26:41.032Z,988.46
2018-08-24T01:27:41.072Z,988.47
2018-08-24T01:28:41.113Z,988.47
2018-08-24T01:29:41.160Z,988.49
2018-08-24T01:30:41.193Z,988.46
2018-08-24T01:31:41.233Z,988.48
2018-08-24T01:32:41.273Z,988.46
2018-08-24T01:33:41.315Z,988.46
2018-08-24T01:34:41.352Z,988.42
2018-08-24T01:35:41.394Z,988.46
2018-08-24T01:36:41.486Z,988.49
2018-08-24T01:37:41.487Z,988.51
2018-08-24T01:38:41.515Z,988.49
2018-08-24T01:39:41.563Z,988.52
2018-08-24T01:40:41.596Z,988.49
2018-08-24T01:41:41.636Z,988.51
2018-08-24T01:42:41.674Z,988.50
2018-08-24T01:43:41.715Z,988.51
2018-08-24T01:44:41.758Z,988.53
2018-08-24T01:45:41.794Z,988.56
2018-08-24T01:46:41.837Z,988.56
2018-08-24T01:47:41.876Z,988.54
2018-08-24T01:48:41.914Z,988.59
2018-08-24T01:49:41.955Z,988.63
2018-08-24T01:50:41.996Z,988.63
2018-08-24T01:51:42.036Z,988.63
2018-08-24T01:52:42.074Z,988.65
2018-08-24T01:53:42.115Z,988.63
2018-08-24T01:54:42.153Z,988.63
2018-08-24T01:55:42.194Z,988.64
2018-08-24T01:56:42.231Z,988.63
2018-08-24T01:57:42.275Z,988.64
2018-08-24T01:58:42.313Z,988.70
2018-08-24T01:59:42.353Z,988.71
2018-08-24T02:00:42.393Z,988.72
2018-08-24T02:01:42.433Z,988.70
2018-08-24T02:02:42.474Z,988.72
2018-08-24T02:03:42.514Z,988.70
2018-08-24T02:04:42.553Z,988.67
2018-08-24T02:05:42.595Z,988.66
2018-08-24T02:06:42.634Z,988.65
2018-08-24T02:07:42.676Z,988.65
2018-08-24T02:08:42.719Z,988.64
2018-08-24T02:09:42.754Z,988.64
2018-08-24T02:10:42.795Z,988.63
2018-08-24T02:11:42.836Z,988.63
2018-08-24T02:12:42.874Z,988.62
2018-08-24T02:13:42.914Z,988.54
2018-08-24T02:14:42.958Z,988.57
2018-08-24T02:15:42.997Z,988.54
2018-08-24T02:16:43.034Z,988.51
2018-08-24T02:17:43.075Z,988.51
2018-08-24T02:18:43.114Z,988.49
2018-08-24T02:19:43.153Z,988.46
2018-08-24T02:20:43.203Z,988.47
2018-08-24T02:21:43.236Z,988.46
2018-08-24T02:22:43.282Z,988.41
2018-08-24T02:23:43.314Z,988.41
2018-08-24T02:24:43.354Z,988.42
2018-08-24T02:25:43.394Z,988.40
2018-08-24T02:26:43.436Z,988.40
2018-08-24T02:27:43.475Z,988.45
2018-08-24T02:28:43.515Z,988.44
2018-08-24T02:29:43.558Z,988.46
2018-08-24T02:30:43.595Z,988.43
2018-08-24T02:31:43.637Z,988.49
2018-08-24T02:32:43.676Z,988.45
2018-08-24T02:33:43.718Z,988.42
2018-08-24T02:34:43.757Z,988.41
2018-08-24T02:35:43.800Z,988.41
2018-08-24T02:36:43.836Z,988.44
2018-08-24T02:37:43.878Z,988.39
2018-08-24T02:38:43.918Z,988.37
2018-08-24T02:39:43.959Z,988.34
2018-08-24T02:40:44.016Z,988.32
2018-08-24T02:41:44.039Z,988.31
2018-08-24T02:42:44.078Z,988.30
2018-08-24T02:43:44.119Z,988.29
2018-08-24T02:44:44.157Z,988.30
2018-08-24T02:45:44.199Z,988.26
2018-08-24T02:46:44.242Z,988.29
2018-08-24T02:47:44.279Z,988.31
2018-08-24T02:48:44.318Z,988.31
2018-08-24T02:49:44.465Z,988.30
2018-08-24T02:50:44.398Z,988.31
2018-08-24T02:51:44.439Z,988.31
2018-08-24T02:52:44.481Z,988.29
2018-08-24T02:53:44.519Z,988.31
2018-08-24T02:54:44.559Z,988.32
2018-08-24T02:55:44.603Z,988.31
2018-08-24T02:56:44.640Z,988.30
2018-08-24T02:57:44.680Z,988.26
2018-08-24T02:58:44.720Z,988.24
2018-08-24T02:59:44.759Z,988.24
2018-08-24T03:00:44.800Z,988.22
2018-08-24T03:01:44.842Z,988.21
2018-08-24T03:02:44.886Z,988.18
2018-08-24T03:03:44.922Z,988.19
2018-08-24T03:04:44.960Z,988.17
2018-08-24T03:05:45.089Z,988.16
2018-08-24T03:06:45.042Z,988.21
2018-08-24T03:07:45.082Z,988.19
2018-08-24T03:08:45.124Z,988.19
2018-08-24T03:09:45.162Z,988.23
2018-08-24T03:10:45.209Z,988.20
2018-08-24T03:11:45.245Z,988.18
2018-08-24T03:12:45.283Z,988.19
2018-08-24T03:13:45.326Z,988.17
2018-08-24T03:14:45.363Z,988.17
2018-08-24T03:15:45.403Z,988.19
2018-08-24T03:16:45.444Z,988.16
2018-08-24T03:17:45.483Z,988.20
2018-08-24T03:18:45.523Z,988.22
2018-08-24T03:19:45.566Z,988.27
2018-08-24T03:20:45.604Z,988.26
2018-08-24T03:21:45.661Z,988.27
2018-08-24T03:22:45.684Z,988.29
2018-08-24T03:23:45.725Z,988.29
2018-08-24T03:24:45.764Z,988.28
2018-08-24T03:25:45.805Z,988.32
2018-08-24T03:26:45.846Z,988.29
2018-08-24T03:27:45.888Z,988.26
2018-08-24T03:28:45.926Z,988.24
2018-08-24T03:29:45.968Z,988.20
2018-08-24T03:30:46.007Z,988.13
2018-08-24T03:31:46.046Z,988.13
2018-08-24T03:32:46.088Z,988.17
2018-08-24T03:33:46.128Z,988.14
2018-08-24T03:34:46.168Z,988.15
2018-08-24T03:35:46.211Z,988.14
2018-08-24T03:36:46.351Z,988.18
2018-08-24T03:37:46.292Z,988.16
2018-08-24T03:38:46.328Z,988.15
2018-08-24T03:39:46.370Z,988.15
2018-08-24T03:40:46.411Z,988.12
2018-08-24T03:41:46.460Z,988.08
2018-08-24T03:42:46.495Z,988.11
2018-08-24T03:43:46.533Z,988.11
2018-08-24T03:44:46.575Z,988.11
2018-08-24T03:45:46.642Z,988.07
2018-08-24T03:46:46.653Z,988.12
2018-08-24T03:47:46.692Z,988.06
2018-08-24T03:48:46.733Z,988.10
2018-08-24T03:49:46.775Z,988.07
2018-08-24T03:50:46.813Z,988.10
2018-08-24T03:51:46.852Z,988.11
2018-08-24T03:52:46.994Z,988.15
2018-08-24T03:53:46.934Z,988.14
2018-08-24T03:54:46.974Z,988.17
2018-08-24T03:55:47.015Z,988.18
2018-08-24T03:56:47.056Z,988.20
2018-08-24T03:57:47.096Z,988.16
2018-08-24T03:58:47.137Z,988.21
2018-08-24T03:59:47.178Z,988.23
2018-08-24T04:00:47.216Z,988.21
2018-08-24T04:01:47.259Z,988.21
2018-08-24T04:02:47.299Z,988.24
2018-08-24T04:03:47.335Z,988.26
2018-08-24T04:04:47.378Z,988.24
2018-08-24T04:05:47.419Z,988.23
2018-08-24T04:06:47.457Z,988.26
2018-08-24T04:07:47.499Z,988.31
2018-08-24T04:08:47.537Z,988.28
2018-08-24T04:09:47.589Z,988.29
2018-08-24T04:10:47.617Z,988.27
2018-08-24T04:11:47.658Z,988.28
2018-08-24T04:12:47.734Z,988.27
2018-08-24T04:13:47.739Z,988.23
2018-08-24T04:14:47.781Z,988.26
2018-08-24T04:15:47.819Z,988.27
2018-08-24T04:16:47.864Z,988.25
2018-08-24T04:17:47.900Z,988.27
2018-08-24T04:18:47.939Z,988.30
2018-08-24T04:19:47.986Z,988.31
2018-08-24T04:20:48.022Z,988.28
2018-08-24T04:21:48.061Z,988.29
2018-08-24T04:22:48.101Z,988.25
2018-08-24T04:23:48.141Z,988.26
2018-08-24T04:24:48.182Z,988.27
2018-08-24T04:25:48.330Z,988.24
2018-08-24T04:26:48.263Z,988.27
2018-08-24T04:27:48.301Z,988.27
2018-08-24T04:28:48.342Z,988.27
2018-08-24T04:29:48.430Z,988.30
2018-08-24T04:30:48.425Z,988.30
2018-08-24T04:31:48.461Z,988.32
2018-08-24T04:32:48.502Z,988.34
2018-08-24T04:33:48.543Z,988.34
2018-08-24T04:34:48.640Z,988.34
2018-08-24T04:35:48.625Z,988.37
2018-08-24T04:36:48.664Z,988.37
2018-08-24T04:37:48.704Z,988.40
2018-08-24T04:38:48.743Z,988.41
2018-08-24T04:39:48.783Z,988.47
2018-08-24T04:40:48.824Z,988.48
2018-08-24T04:41:48.865Z,988.51
2018-08-24T04:42:48.902Z,988.54
2018-08-24T04:43:48.943Z,988.51
2018-08-24T04:44:48.985Z,988.49
2018-08-24T04:45:49.024Z,988.50
2018-08-24T04:46:49.063Z,988.47
2018-08-24T04:47:49.106Z,988.42
2018-08-24T04:48:49.143Z,988.49
2018-08-24T04:49:49.183Z,988.44
2018-08-24T04:50:49.222Z,988.40
2018-08-24T04:51:49.262Z,988.40
2018-08-24T04:52:49.309Z,988.42
2018-08-24T04:53:49.342Z,988.41
2018-08-24T04:54:49.391Z,988.42
2018-08-24T04:55:49.424Z,988.43
2018-08-24T04:56:49.462Z,988.42
2018-08-24T04:57:49.503Z,988.45
2018-08-24T04:58:49.545Z,988.45
2018-08-24T04:59:49.582Z,988.48
2018-08-24T05:00:49.621Z,988.54
2018-08-24T05:01:49.663Z,988.53
2018-08-24T05:02:49.702Z,988.55
2018-08-24T05:03:49.742Z,988.59
2018-08-24T05:04:49.781Z,988.58
2018-08-24T05:05:49.957Z,988.58
2018-08-24T05:06:49.863Z,988.57
2018-08-24T05:07:49.907Z,988.62
2018-08-24T05:08:49.942Z,988.59
2018-08-24T05:09:49.986Z,988.59
2018-08-24T05:10:50.022Z,988.61
2018-08-24T05:11:50.062Z,988.58
2018-08-24T05:12:50.102Z,988.61
2018-08-24T05:13:50.143Z,988.63
2018-08-24T05:14:50.189Z,988.65
2018-08-24T05:15:50.225Z,988.60
2018-08-24T05:16:50.261Z,988.67
2018-08-24T05:17:50.301Z,988.62
2018-08-24T05:18:50.344Z,988.65
2018-08-24T05:19:50.382Z,988.63
2018-08-24T05:20:50.422Z,988.65
2018-08-24T05:21:50.460Z,988.62
2018-08-24T05:22:50.501Z,988.65
2018-08-24T05:23:50.554Z,988.65
2018-08-24T05:24:50.805Z,988.69
2018-08-24T05:25:50.619Z,988.67
2018-08-24T05:26:50.662Z,988.67
2018-08-24T05:27:50.700Z,988.65
2018-08-24T05:28:50.738Z,988.74
2018-08-24T05:29:50.781Z,988.74
2018-08-24T05:30:50.821Z,988.70
2018-08-24T05:31:50.859Z,988.71
2018-08-24T05:32:50.901Z,988.73
2018-08-24T05:33:50.941Z,988.71
2018-08-24T05:34:50.979Z,988.69
2018-08-24T05:35:51.020Z,988.68
2018-08-24T05:36:51.060Z,988.66
2018-08-24T05:37:51.108Z,988.69
2018-08-24T05:38:51.140Z,988.65
2018-08-24T05:39:51.187Z,988.66
2018-08-24T05:40:51.219Z,988.65
2018-08-24T05:41:51.259Z,988.62
2018-08-24T05:42:51.300Z,988.64
2018-08-24T05:43:51.340Z,988.61
2018-08-24T05:44:51.380Z,988.61
2018-08-24T05:45:51.419Z,988.62
2018-08-24T05:46:51.462Z,988.63
2018-08-24T05:47:51.499Z,988.65
2018-08-24T05:48:51.588Z,988.63
2018-08-24T05:49:51.580Z,988.64
2018-08-24T05:50:51.626Z,988.66
2018-08-24T05:51:51.668Z,988.63
2018-08-24T05:52:51.699Z,988.62
2018-08-24T05:53:51.739Z,988.64
2018-08-24T05:54:51.777Z,988.65
2018-08-24T05:55:51.818Z,988.68
2018-08-24T05:56:51.858Z,988.65
2018-08-24T05:57:51.903Z,988.70
2018-08-24T05:58:51.938Z,988.77
2018-08-24T05:59:51.979Z,988.76
2018-08-24T06:00:52.022Z,988.82
2018-08-24T06:01:52.064Z,988.83
2018-08-24T06:02:52.100Z,988.83
2018-08-24T06:03:52.141Z,988.88
2018-08-24T06:04:52.181Z,988.88
2018-08-24T06:05:52.249Z,988.88
2018-08-24T06:06:52.269Z,988.90
2018-08-24T06:07:52.302Z,988.89
2018-08-24T06:08:52.343Z,988.92
2018-08-24T06:09:52.382Z,988.92
2018-08-24T06:10:52.427Z,988.92
2018-08-24T06:11:52.462Z,988.91
2018-08-24T06:12:52.502Z,988.88
2018-08-24T06:13:52.542Z,988.91
2018-08-24T06:14:52.582Z,988.93
2018-08-24T06:15:52.672Z,988.91
2018-08-24T06:16:52.731Z,988.99
2018-08-24T06:17:52.703Z,988.97
2018-08-24T06:18:52.758Z,988.99
2018-08-24T06:19:52.784Z,989.01
2018-08-24T06:20:52.835Z,989.04
2018-08-24T06:21:52.864Z,989.04
2018-08-24T06:22:52.921Z,989.09
2018-08-24T06:23:52.995Z,989.08
2018-08-24T06:24:52.986Z,989.09
2018-08-24T06:25:53.027Z,989.08
2018-08-24T06:26:53.068Z,989.08
2018-08-24T06:27:53.108Z,989.11
2018-08-24T06:28:53.151Z,989.14
2018-08-24T06:29:53.189Z,989.13
2018-08-24T06:30:53.227Z,989.12
2018-08-24T06:31:53.270Z,989.12
2018-08-24T06:32:53.379Z,989.11
2018-08-24T06:33:53.412Z,989.08
2018-08-24T06:34:53.392Z,989.11
2018-08-24T06:35:53.440Z,989.15
2018-08-24T06:36:53.539Z,989.17
2018-08-24T06:37:53.514Z,989.16
2018-08-24T06:38:53.554Z,989.20
2018-08-24T06:39:53.594Z,989.22
2018-08-24T06:40:53.637Z,989.21
2018-08-24T06:41:53.701Z,989.25
2018-08-24T06:42:53.717Z,989.29
2018-08-24T06:43:53.757Z,989.31
2018-08-24T06:44:53.807Z,989.33
2018-08-24T06:45:53.841Z,989.35
2018-08-24T06:46:53.884Z,989.34
2018-08-24T06:47:53.920Z,989.31
2018-08-24T06:48:53.962Z,989.34
2018-08-24T06:49:54.003Z,989.40
2018-08-24T06:50:54.052Z,989.39
2018-08-24T06:51:54.084Z,989.39
2018-08-24T06:52:54.183Z,989.46
2018-08-24T06:53:54.237Z,989.42
2018-08-24T06:54:54.207Z,989.45
2018-08-24T06:55:54.246Z,989.46
2018-08-24T06:56:54.292Z,989.48
2018-08-24T06:57:54.340Z,989.48
2018-08-24T06:58:54.371Z,989.50
2018-08-24T06:59:54.420Z,989.52
2018-08-24T07:00:54.464Z,989.53
2018-08-24T07:01:54.496Z,989.52
2018-08-24T07:02:54.538Z,989.59
2018-08-24T07:03:54.575Z,989.59
2018-08-24T07:04:54.617Z,989.58
2018-08-24T07:05:54.726Z,989.66
2018-08-24T07:06:54.701Z,989.61
2018-08-24T07:07:54.743Z,989.60
2018-08-24T07:08:54.786Z,989.63
2018-08-24T07:09:54.826Z,989.59
2018-08-24T07:10:54.869Z,989.63
2018-08-24T07:11:54.906Z,989.66
2018-08-24T07:12:55.000Z,989.63
2018-08-24T07:13:54.988Z,989.69
2018-08-24T07:14:55.029Z,989.74
2018-08-24T07:15:55.083Z,989.67
2018-08-24T07:16:55.116Z,989.63
2018-08-24T07:17:55.156Z,989.70
2018-08-24T07:18:55.195Z,989.61
2018-08-24T07:19:55.240Z,989.54
2018-08-24T07:20:55.277Z,989.59
2018-08-24T07:21:55.320Z,989.58
2018-08-24T07:22:55.361Z,989.65
2018-08-24T07:23:55.402Z,989.69
2018-08-24T07:24:55.444Z,989.70
2018-08-24T07:25:55.488Z,989.72
2018-08-24T07:26:55.526Z,989.77
2018-08-24T07:27:55.569Z,989.80
2018-08-24T07:28:55.610Z,989.79
2018-08-24T07:29:55.654Z,989.87
2018-08-24T07:30:55.696Z,989.84
2018-08-24T07:31:55.737Z,989.86
2018-08-24T07:32:55.778Z,989.91
2018-08-24T07:33:55.820Z,989.93
2018-08-24T07:34:55.863Z,989.92
2018-08-24T07:35:55.903Z,989.95
2018-08-24T07:36:55.945Z,989.98
2018-08-24T07:37:55.998Z,989.93
2018-08-24T07:38:56.030Z,989.95
2018-08-24T07:39:56.071Z,989.95
2018-08-24T07:40:56.126Z,989.96
2018-08-24T07:41:56.206Z,989.96
2018-08-24T07:42:56.199Z,989.97
2018-08-24T07:43:56.248Z,989.88
2018-08-24T07:44:56.282Z,989.96
2018-08-24T07:45:56.324Z,989.99
2018-08-24T07:46:56.366Z,989.97
2018-08-24T07:47:56.411Z,989.91
2018-08-24T07:48:56.459Z,989.99
2018-08-24T07:49:56.493Z,989.95
2018-08-24T07:50:56.612Z,989.99
2018-08-24T07:51:56.577Z,990.02
2018-08-24T07:52:56.623Z,989.96
2018-08-24T07:53:56.663Z,990.02
2018-08-24T07:54:56.704Z,989.97
2018-08-24T07:55:56.746Z,989.88
2018-08-24T07:56:56.832Z,989.94
2018-08-24T07:57:56.834Z,989.94
2018-08-24T07:58:56.874Z,989.91
2018-08-24T07:59:57.025Z,989.88
2018-08-24T08:00:56.960Z,989.87
2018-08-24T08:01:57.001Z,989.86
2018-08-24T08:02:57.045Z,989.89
2018-08-24T08:03:57.089Z,989.94
2018-08-24T08:04:57.129Z,989.92
2018-08-24T08:05:57.176Z,989.91
2018-08-24T08:06:57.215Z,989.88
2018-08-24T08:07:57.263Z,989.90
2018-08-24T08:08:57.301Z,989.91
2018-08-24T08:09:57.341Z,989.92
2018-08-24T08:10:57.384Z,990.01
2018-08-24T08:11:57.428Z,990.03
2018-08-24T08:12:57.468Z,990.04
2018-08-24T08:13:57.512Z,989.99
2018-08-24T08:14:57.553Z,989.93
2018-08-24T08:15:57.595Z,989.86
2018-08-24T08:16:57.641Z,989.87
2018-08-24T08:17:57.679Z,989.84
2018-08-24T08:18:57.721Z,989.86
2018-08-24T08:19:57.825Z,989.86
2018-08-24T08:20:57.806Z,989.88
2018-08-24T08:21:57.848Z,989.85
2018-08-24T08:22:57.890Z,989.88
2018-08-24T08:23:57.932Z,989.81
2018-08-24T08:24:57.975Z,989.89
2018-08-24T08:25:58.016Z,989.85
2018-08-24T08:26:58.060Z,989.90
2018-08-24T08:27:58.100Z,989.90
2018-08-24T08:28:58.181Z,989.92
2018-08-24T08:29:58.193Z,989.96
2018-08-24T08:30:58.226Z,989.99
2018-08-24T08:31:58.269Z,990.06
2018-08-24T08:32:58.311Z,990.11
2018-08-24T08:33:58.355Z,990.15
2018-08-24T08:34:58.398Z,990.12
2018-08-24T08:35:58.437Z,990.13
2018-08-24T08:36:58.479Z,990.12
2018-08-24T08:37:58.527Z,990.15
2018-08-24T08:38:58.635Z,990.18
2018-08-24T08:39:58.606Z,990.20
2018-08-24T08:40:58.656Z,990.22
2018-08-24T08:41:58.689Z,990.23
2018-08-24T08:42:58.732Z,990.25
2018-08-24T08:43:58.774Z,990.28
2018-08-24T08:44:58.828Z,990.24
2018-08-24T08:45:58.856Z,990.19
2018-08-24T08:46:58.898Z,990.24
2018-08-24T08:47:58.942Z,990.23
2018-08-24T08:48:58.983Z,990.28
2018-08-24T08:49:59.023Z,990.27
2018-08-24T08:50:59.067Z,990.30
2018-08-24T08:51:59.107Z,990.33
2018-08-24T08:52:59.150Z,990.28
2018-08-24T08:53:59.200Z,990.27
2018-08-24T08:54:59.233Z,990.24
2018-08-24T08:55:59.283Z,990.24
2018-08-24T08:56:59.316Z,990.27
2018-08-24T08:57:59.360Z,990.30
2018-08-24T08:58:59.401Z,990.27
2018-08-24T08:59:59.459Z,990.30
2018-08-24T09:00:59.495Z,990.39
2018-08-24T09:01:59.526Z,990.39
2018-08-24T09:02:59.573Z,990.44
2018-08-24T09:03:59.616Z,990.46
2018-08-24T09:04:59.653Z,990.50
2018-08-24T09:05:59.745Z,990.52
2018-08-24T09:06:59.738Z,990.57
2018-08-24T09:07:59.787Z,990.53
2018-08-24T09:08:59.818Z,990.55
2018-08-24T09:09:59.863Z,990.55
2018-08-24T09:10:59.901Z,990.55
2018-08-24T09:11:59.942Z,990.59
2018-08-24T09:13:00.021Z,990.56
2018-08-24T09:14:00.024Z,990.59
2018-08-24T09:15:00.064Z,990.56
2018-08-24T09:16:00.106Z,990.61
2018-08-24T09:17:00.150Z,990.51
2018-08-24T09:18:00.189Z,990.56
2018-08-24T09:19:00.232Z,990.53
2018-08-24T09:20:00.272Z,990.55
2018-08-24T09:21:00.323Z,990.63
2018-08-24T09:22:00.358Z,990.59
2018-08-24T09:23:00.402Z,990.65
2018-08-24T09:24:00.451Z,990.64
2018-08-24T09:25:00.480Z,990.65
2018-08-24T09:26:00.520Z,990.66
2018-08-24T09:27:00.568Z,990.72
2018-08-24T09:28:00.604Z,990.71
2018-08-24T09:29:00.644Z,990.74
2018-08-24T09:30:00.687Z,990.74
2018-08-24T09:31:00.777Z,990.78
2018-08-24T09:32:00.778Z,990.72
2018-08-24T09:33:00.964Z,990.73
2018-08-24T09:34:00.853Z,990.72
2018-08-24T09:35:00.900Z,990.72
2018-08-24T09:36:00.936Z,990.76
2018-08-24T09:37:00.978Z,990.80
2018-08-24T09:38:01.089Z,990.86
2018-08-24T09:39:01.057Z,990.81
2018-08-24T09:40:01.099Z,990.86
2018-08-24T09:41:01.142Z,990.89
2018-08-24T09:42:01.183Z,990.89
2018-08-24T09:43:01.238Z,990.92
2018-08-24T09:44:01.264Z,990.90
2018-08-24T09:45:01.306Z,990.89
2018-08-24T09:46:01.347Z,990.88
2018-08-24T09:47:01.389Z,990.95
2018-08-24T09:48:01.431Z,990.95
2018-08-24T09:49:01.515Z,991.02
2018-08-24T09:50:01.513Z,991.10
2018-08-24T09:51:01.555Z,991.03
2018-08-24T09:52:01.595Z,991.02
2018-08-24T09:53:01.637Z,990.96
2018-08-24T09:54:01.688Z,990.89
2018-08-24T09:55:01.720Z,990.83
2018-08-24T09:56:01.772Z,990.75
2018-08-24T09:57:01.855Z,990.70
2018-08-24T09:58:01.845Z,990.72
2018-08-24T09:59:01.888Z,990.73
2018-08-24T10:00:01.931Z,990.76
2018-08-24T10:01:01.972Z,990.77
2018-08-24T10:02:02.024Z,990.83
2018-08-24T10:03:02.052Z,990.82
2018-08-24T10:04:02.095Z,990.95
2018-08-24T10:05:02.137Z,991.03
2018-08-24T10:06:02.187Z,991.13
2018-08-24T10:07:02.218Z,991.16
2018-08-24T10:08:02.262Z,991.25
2018-08-24T10:09:02.308Z,991.28
2018-08-24T10:10:02.348Z,991.19
2018-08-24T10:11:02.389Z,991.17
2018-08-24T10:12:02.427Z,991.18
2018-08-24T10:13:02.468Z,991.16
2018-08-24T10:14:02.511Z,991.19
2018-08-24T10:15:02.550Z,991.24
2018-08-24T10:16:02.592Z,991.26
2018-08-24T10:17:02.634Z,991.22
2018-08-24T10:18:02.678Z,991.29
2018-08-24T10:19:02.718Z,991.29
2018-08-24T10:20:02.761Z,991.25
2018-08-24T10:21:02.803Z,991.24
2018-08-24T10:22:02.849Z,991.25
2018-08-24T10:23:02.950Z,991.27
2018-08-24T10:24:02.926Z,991.20
2018-08-24T10:25:02.978Z,991.17
2018-08-24T10:26:03.018Z,991.17
2018-08-24T10:27:03.054Z,991.20
2018-08-24T10:28:03.097Z,991.16
2018-08-24T10:29:03.139Z,991.15
2018-08-24T10:30:03.181Z,991.12
2018-08-24T10:31:03.223Z,991.07
2018-08-24T10:32:03.265Z,991.02
2018-08-24T10:33:03.306Z,991.02
2018-08-24T10:34:03.365Z,991.01
2018-08-24T10:35:03.390Z,990.99
2018-08-24T10:36:03.434Z,990.97
2018-08-24T10:37:03.473Z,990.99
2018-08-24T10:38:03.534Z,991.05
2018-08-24T10:39:03.622Z,991.04
2018-08-24T10:40:03.601Z,991.06
2018-08-24T10:41:03.643Z,991.09
2018-08-24T10:42:03.685Z,991.15
2018-08-24T10:43:03.725Z,991.22
2018-08-24T10:44:03.768Z,991.22
2018-08-24T10:45:03.810Z,991.24
2018-08-24T10:46:03.852Z,991.31
2018-08-24T10:47:03.894Z,991.32
2018-08-24T10:48:03.946Z,991.33
2018-08-24T10:49:03.995Z,991.27
2018-08-24T10:50:04.030Z,991.22
2018-08-24T10:51:04.069Z,991.20
2018-08-24T10:52:04.106Z,991.25
2018-08-24T10:53:04.147Z,991.28
2018-08-24T10:54:04.189Z,991.29
2018-08-24T10:55:04.232Z,991.30
2018-08-24T10:56:04.384Z,991.28
2018-08-24T10:57:04.321Z,991.27
2018-08-24T10:58:04.357Z,991.35
2018-08-24T10:59:04.401Z,991.41
2018-08-24T11:00:04.449Z,991.46
2018-08-24T11:01:04.486Z,991.48
2018-08-24T11:02:04.623Z,991.53
2018-08-24T11:03:04.569Z,991.62
2018-08-24T11:04:04.622Z,991.65
2018-08-24T11:05:04.663Z,991.67
2018-08-24T11:06:04.698Z,991.61
2018-08-24T11:07:04.793Z,991.59
2018-08-24T11:08:04.784Z,991.60
2018-08-24T11:09:04.827Z,991.52
2018-08-24T11:10:04.869Z,991.39
2018-08-24T11:11:04.912Z,991.35
2018-08-24T11:12:04.955Z,991.31
2018-08-24T11:13:04.998Z,991.32
2018-08-24T11:14:05.041Z,991.22
2018-08-24T11:15:05.083Z,991.15
2018-08-24T11:16:05.126Z,991.23
2018-08-24T11:17:05.177Z,991.27
2018-08-24T11:18:05.212Z,991.32
2018-08-24T11:19:05.262Z,991.36
2018-08-24T11:20:05.297Z,991.31
2018-08-24T11:21:05.346Z,991.31
2018-08-24T11:22:05.383Z,991.28
2018-08-24T11:23:05.507Z,991.29
2018-08-24T11:24:05.469Z,991.27
2018-08-24T11:25:05.511Z,991.26
2018-08-24T11:26:05.612Z,991.24
2018-08-24T11:27:05.596Z,991.22
2018-08-24T11:28:05.640Z,991.23
2018-08-24T11:29:05.684Z,991.23
2018-08-24T11:30:05.728Z,991.19
2018-08-24T11:31:05.767Z,991.22
2018-08-24T11:32:05.813Z,991.22
2018-08-24T11:33:05.856Z,991.22
2018-08-24T11:34:05.904Z,991.23
2018-08-24T11:35:05.941Z,991.18
2018-08-24T11:36:06.099Z,991.17
2018-08-24T11:37:06.025Z,991.18
2018-08-24T11:38:06.082Z,991.15
2018-08-24T11:39:06.110Z,991.10
2018-08-24T11:40:06.155Z,990.99
2018-08-24T11:41:06.197Z,990.97
2018-08-24T11:42:06.306Z,990.93
2018-08-24T11:43:06.286Z,990.94
2018-08-24T11:44:06.325Z,990.88
2018-08-24T11:45:06.370Z,990.90
2018-08-24T11:46:06.417Z,990.91
2018-08-24T11:47:06.467Z,990.91
2018-08-24T11:48:06.499Z,990.84
2018-08-24T11:49:06.541Z,990.80
2018-08-24T11:50:06.585Z,990.86
2018-08-24T11:51:06.627Z,990.79
2018-08-24T11:52:06.669Z,990.78
2018-08-24T11:53:06.711Z,990.81
2018-08-24T11:54:06.804Z,990.82
2018-08-24T11:55:06.802Z,990.82
2018-08-24T11:56:06.901Z,990.82
2018-08-24T11:57:06.897Z,990.84
2018-08-24T11:58:06.927Z,990.78
2018-08-24T11:59:06.971Z,990.87
2018-08-24T12:00:07.013Z,990.92
2018-08-24T12:01:07.062Z,990.91
2018-08-24T12:02:07.190Z,990.93
2018-08-24T12:03:07.153Z,990.92
2018-08-24T12:04:07.185Z,990.89
2018-08-24T12:05:07.226Z,990.85
2018-08-24T12:06:07.322Z,990.84
2018-08-24T12:07:07.314Z,990.82
2018-08-24T12:08:07.604Z,990.79
2018-08-24T12:09:07.402Z,990.80
2018-08-24T12:10:07.445Z,990.73
2018-08-24T12:11:07.487Z,990.72
2018-08-24T12:12:07.636Z,990.67
2018-08-24T12:13:07.577Z,990.62
2018-08-24T12:14:07.617Z,990.62
2018-08-24T12:15:07.663Z,990.57
2018-08-24T12:16:07.697Z,990.56
2018-08-24T12:17:07.740Z,990.49
2018-08-24T12:18:07.789Z,990.55
2018-08-24T12:19:07.824Z,990.54
2018-08-24T12:20:07.867Z,990.56
2018-08-24T12:21:07.930Z,990.69
2018-08-24T12:22:07.955Z,990.69
2018-08-24T12:23:07.997Z,990.73
2018-08-24T12:24:08.040Z,990.77
2018-08-24T12:25:08.083Z,990.76
2018-08-24T12:26:08.125Z,990.78
2018-08-24T12:27:08.258Z,990.76
2018-08-24T12:28:08.222Z,990.66
2018-08-24T12:29:08.253Z,990.63
2018-08-24T12:30:08.306Z,990.57
2018-08-24T12:31:08.342Z,990.51
2018-08-24T12:32:08.384Z,990.42
2018-08-24T12:33:08.426Z,990.37
2018-08-24T12:34:08.469Z,990.35
2018-08-24T12:35:08.516Z,990.39
2018-08-24T12:36:08.554Z,990.33
2018-08-24T12:37:08.600Z,990.38
2018-08-24T12:38:08.749Z,990.38